Time;durP1;ratioP1;P1;durP2;ratioP2;P2;SDS_P1;SDS_P2;PMS_P1;PMS_P2;Temp;Humidity;BMP_temperature;BMP_pressure;BME280_temperature;BME280_humidity;BME280_pressure;Samples;Min_cycle;Max_cycle;Signal;HPM_P1;HPM_P2
2022/12/31 00:01:46;;;;;;;0.38;0.25;;;;;;;13.78;86.10;100171.31;5039785;28;20050;-72
2022/12/31 00:04:12;;;;;;;0.20;0.20;;;;;;;13.81;85.49;100166.88;5039320;28;20505;-72
2022/12/31 00:06:37;;;;;;;0.30;0.15;;;;;;;13.81;85.38;100160.81;5052506;28;20054;-73
2022/12/31 00:09:05;;;;;;;1.63;0.22;;;;;;;13.77;86.02;100154.06;5066441;28;20040;-72
2022/12/31 00:11:32;;;;;;;0.75;0.47;;;;;;;13.74;85.79;100164.53;5067710;28;20021;-72
2022/12/31 00:13:57;;;;;;;0.88;0.55;;;;;;;13.73;85.63;100161.06;5066495;28;20028;-72
2022/12/31 00:16:28;;;;;;;1.20;0.75;;;;;;;13.67;86.28;100158.66;5034515;28;20036;-71
2022/12/31 00:18:59;;;;;;;1.48;0.70;;;;;;;13.67;86.27;100160.41;5046652;28;20033;-71
2022/12/31 00:21:28;;;;;;;2.92;1.00;;;;;;;13.65;86.81;100165.66;5047919;28;20048;-72
2022/12/31 00:23:54;;;;;;;0.80;0.50;;;;;;;13.60;87.13;100164.94;5052362;28;20051;-72
2022/12/31 00:26:23;;;;;;;0.90;0.60;;;;;;;13.60;87.12;100156.28;5070135;28;20115;-71
2022/12/31 00:28:50;;;;;;;0.88;0.52;;;;;;;13.63;87.19;100158.78;5068762;28;20036;-72
2022/12/31 00:31:18;;;;;;;0.30;0.20;;;;;;;13.72;87.27;100159.38;5048335;28;20087;-71
2022/12/31 00:33:44;;;;;;;0.30;0.30;;;;;;;13.84;87.09;100160.72;5070259;28;20029;-74
2022/12/31 00:36:11;;;;;;;1.00;0.32;;;;;;;13.94;86.79;100159.56;5050347;28;20047;-71
2022/12/31 00:38:38;;;;;;;0.28;0.20;;;;;;;14.08;87.09;100159.97;5066587;28;20604;-71
2022/12/31 00:41:04;;;;;;;0.22;0.20;;;;;;;14.16;86.35;100157.94;5053176;28;20044;-72
2022/12/31 00:43:30;;;;;;;0.10;0.10;;;;;;;14.29;86.17;100154.06;5049126;28;20409;-72
2022/12/31 00:45:55;;;;;;;0.20;0.20;;;;;;;14.39;85.43;100162.44;5033670;28;20505;-72
2022/12/31 00:48:21;;;;;;;0.38;0.30;;;;;;;14.48;84.98;100160.38;5056240;28;20048;-72
2022/12/31 00:50:47;;;;;;;0.47;0.20;;;;;;;14.51;85.22;100156.84;5056752;28;20051;-71
2022/12/31 00:53:12;;;;;;;5.65;0.38;;;;;;;14.51;85.17;100160.25;5038279;28;20024;-71
2022/12/31 00:55:38;;;;;;;0.75;0.30;;;;;;;14.49;85.16;100158.63;5069187;28;20562;-72
2022/12/31 00:58:03;;;;;;;0.50;0.30;;;;;;;14.47;85.37;100153.47;5043474;28;20048;-71
2022/12/31 01:00:29;;;;;;;0.90;0.20;;;;;;;14.48;85.05;100149.97;5034622;28;20044;-71
2022/12/31 01:02:54;;;;;;;0.77;0.20;;;;;;;14.45;85.21;100152.69;5056244;28;20027;-72
2022/12/31 01:05:20;;;;;;;0.13;0.13;;;;;;;14.47;85.33;100161.28;5020221;28;20412;-73
2022/12/31 01:07:45;;;;;;;0.20;0.20;;;;;;;14.50;85.76;100153.38;5074194;28;20035;-73
2022/12/31 01:10:11;;;;;;;0.30;0.20;;;;;;;14.56;85.26;100154.91;5050567;28;20033;-72
2022/12/31 01:12:36;;;;;;;0.85;0.20;;;;;;;14.55;85.33;100154.06;5050202;28;20040;-72
2022/12/31 01:15:02;;;;;;;1.02;0.30;;;;;;;14.64;85.35;100155.50;5050473;28;20051;-72
2022/12/31 01:17:27;;;;;;;0.25;0.20;;;;;;;14.72;85.11;100161.31;5051425;28;20021;-72
2022/12/31 01:19:53;;;;;;;0.45;0.20;;;;;;;14.78;84.64;100152.44;5077657;28;20040;-73
2022/12/31 01:22:18;;;;;;;1.20;0.10;;;;;;;14.81;84.75;100152.31;5055235;28;20399;-72
2022/12/31 01:24:43;;;;;;;0.10;0.10;;;;;;;14.81;84.73;100166.16;5033266;28;20108;-72
2022/12/31 01:27:09;;;;;;;0.63;0.20;;;;;;;14.78;84.74;100168.03;5049435;28;20044;-72
2022/12/31 01:29:34;;;;;;;0.85;0.20;;;;;;;14.83;84.41;100160.91;5049833;28;20038;-72
2022/12/31 01:32:00;;;;;;;0.38;0.25;;;;;;;14.80;85.31;100155.81;5057635;28;20063;-72
2022/12/31 01:34:26;;;;;;;0.10;0.10;;;;;;;14.78;85.08;100155.03;5051696;28;20517;-73
2022/12/31 01:36:51;;;;;;;0.60;0.20;;;;;;;14.78;84.99;100168.03;5058845;28;20036;-72
2022/12/31 01:39:17;;;;;;;1.17;0.10;;;;;;;14.77;85.32;100150.72;5015673;28;20058;-72
2022/12/31 01:41:45;;;;;;;0.10;0.10;;;;;;;14.76;85.41;100155.06;5026546;28;20040;-72
2022/12/31 01:44:10;;;;;;;0.50;0.30;;;;;;;14.71;85.43;100149.19;5048507;28;20044;-73
2022/12/31 01:46:41;;;;;;;0.68;0.10;;;;;;;14.74;85.30;100156.88;5054092;28;20115;-73
2022/12/31 01:49:15;;;;;;;0.70;0.10;;;;;;;14.74;85.55;100154.28;5067854;28;20082;-72
2022/12/31 01:51:43;;;;;;;0.10;0.10;;;;;;;14.68;85.44;100154.50;5045872;28;20045;-73
2022/12/31 01:54:13;;;;;;;0.28;0.10;;;;;;;14.74;85.62;100169.91;5049425;28;20055;-72
2022/12/31 01:56:42;;;;;;;0.10;0.10;;;;;;;14.69;85.65;100170.97;5052757;28;20085;-72
2022/12/31 01:59:10;;;;;;;0.20;0.20;;;;;;;14.71;85.80;100176.94;5052716;28;20054;-73
2022/12/31 02:01:37;;;;;;;0.95;0.10;;;;;;;14.76;85.71;100177.63;5070216;28;20056;-72
2022/12/31 02:04:09;;;;;;;0.20;0.20;;;;;;;14.81;85.28;100178.34;5034911;28;20033;-73
2022/12/31 02:07:05;;;;;;;0.10;0.10;;;;;;;14.91;84.80;100177.94;5062672;28;20031;-72
2022/12/31 02:09:32;;;;;;;0.85;0.10;;;;;;;14.88;84.39;100185.88;5034707;28;20090;-72
2022/12/31 02:11:57;;;;;;;0.52;0.10;;;;;;;14.97;83.73;100174.28;5014562;28;20142;-72
2022/12/31 02:14:29;;;;;;;0.10;0.10;;;;;;;15.12;82.93;100178.94;5042993;28;20114;-73
2022/12/31 02:17:13;;;;;;;0.10;0.10;;;;;;;15.33;82.00;100185.13;5049787;28;20528;-73
2022/12/31 02:20:16;;;;;;;0.10;0.10;;;;;;;15.36;81.42;100169.38;5041787;28;20045;-72
2022/12/31 02:23:00;;;;;;;1.73;0.13;;;;;;;15.34;81.46;100166.00;5050762;28;20481;-72
2022/12/31 02:25:39;;;;;;;0.20;0.10;;;;;;;15.32;81.16;100159.97;5050464;28;20424;-73
2022/12/31 02:28:25;;;;;;;1.75;0.20;;;;;;;15.35;80.59;100163.31;5039201;28;20044;-72
2022/12/31 02:31:16;;;;;;;0.10;0.10;;;;;;;15.35;80.67;100172.88;5049493;28;20043;-73
2022/12/31 02:33:51;;;;;;;0.10;0.10;;;;;;;15.39;80.23;100182.28;5041563;28;20041;-72
2022/12/31 02:36:26;;;;;;;0.70;0.20;;;;;;;15.50;79.78;100175.75;5054571;28;20037;-72
2022/12/31 02:38:54;;;;;;;0.00;0.00;;;;;;;15.58;78.82;100176.31;5031060;28;20028;-72
2022/12/31 02:44:23;;;;;;;0.20;0.17;;;;;;;15.61;78.94;100185.78;5062949;28;20085;-72
2022/12/31 02:47:07;;;;;;;0.10;0.10;;;;;;;15.65;78.86;100192.59;5049316;28;20033;-72
2022/12/31 02:50:04;;;;;;;0.00;0.00;;;;;;;15.69;78.44;100183.78;5045614;28;20037;-73
2022/12/31 02:52:50;;;;;;;0.30;0.20;;;;;;;15.73;78.41;100186.19;5060039;28;20037;-72
2022/12/31 02:55:25;;;;;;;0.20;0.20;;;;;;;15.76;78.38;100178.25;5046489;28;20032;-72
2022/12/31 02:58:05;;;;;;;0.28;0.13;;;;;;;15.73;78.15;100191.41;5055153;28;20034;-72
2022/12/31 03:03:23;;;;;;;0.50;0.13;;;;;;;15.73;78.25;100194.00;5077662;28;20067;-72
2022/12/31 03:05:49;;;;;;;0.50;0.43;;;;;;;15.80;78.43;100191.16;5070397;28;20342;-72
2022/12/31 03:08:22;;;;;;;0.22;0.10;;;;;;;15.83;78.10;100199.72;5049973;28;20033;-72
2022/12/31 03:10:48;;;;;;;0.30;0.20;;;;;;;15.83;78.29;100210.13;5059941;28;20515;-72
2022/12/31 03:13:13;;;;;;;0.15;0.10;;;;;;;15.85;77.98;100192.69;5048046;28;20056;-72
2022/12/31 03:15:39;;;;;;;0.20;0.20;;;;;;;15.84;78.47;100200.56;5049536;28;20394;-73
2022/12/31 03:18:12;;;;;;;0.10;0.10;;;;;;;15.81;78.27;100198.94;5048954;28;20069;-72
2022/12/31 03:23:36;;;;;;;0.15;0.10;;;;;;;15.72;78.59;100214.91;5063427;28;20048;-72
2022/12/31 03:26:08;;;;;;;0.10;0.10;;;;;;;15.76;78.76;100209.53;5044369;28;20048;-72
2022/12/31 03:28:34;;;;;;;0.20;0.10;;;;;;;15.77;78.80;100220.81;5039224;28;20032;-72
2022/12/31 03:31:01;;;;;;;0.05;0.05;;;;;;;15.75;78.53;100218.25;5040855;28;20040;-72
2022/12/31 03:33:34;;;;;;;0.10;0.10;;;;;;;15.82;78.18;100205.00;5068153;28;20036;-72
2022/12/31 03:36:02;;;;;;;0.05;0.05;;;;;;;15.80;78.28;100199.84;5061905;28;20060;-72
2022/12/31 03:38:28;;;;;;;0.17;0.10;;;;;;;15.83;78.53;100210.13;5051931;28;20033;-72
2022/12/31 03:40:53;;;;;;;0.15;0.10;;;;;;;15.83;78.65;100211.91;5033120;28;20831;-72
2022/12/31 03:43:19;;;;;;;0.43;0.30;;;;;;;15.84;78.70;100208.38;5032839;28;20124;-73
2022/12/31 03:45:52;;;;;;;0.25;0.20;;;;;;;15.87;78.50;100216.09;5034484;28;20037;-72
2022/12/31 03:48:20;;;;;;;0.10;0.10;;;;;;;15.96;78.10;100205.31;5050101;28;20036;-72
2022/12/31 03:50:45;;;;;;;0.20;0.10;;;;;;;15.98;77.67;100211.31;5055342;28;20041;-72
2022/12/31 03:53:11;;;;;;;0.13;0.03;;;;;;;16.01;77.82;100224.22;5034652;28;20119;-72
2022/12/31 03:55:36;;;;;;;0.10;0.10;;;;;;;16.03;77.45;100225.00;5051276;28;20040;-72
2022/12/31 03:58:02;;;;;;;0.55;0.10;;;;;;;16.07;77.15;100219.63;5058936;28;20040;-72
2022/12/31 04:00:28;;;;;;;0.10;0.00;;;;;;;16.08;77.09;100208.28;5058842;28;20528;-72
2022/12/31 04:02:54;;;;;;;0.10;0.10;;;;;;;16.11;77.06;100207.31;5044718;28;20075;-72
2022/12/31 04:05:20;;;;;;;0.25;0.10;;;;;;;16.06;77.23;100209.22;5040195;28;20524;-72
2022/12/31 04:07:46;;;;;;;0.17;0.10;;;;;;;15.99;77.98;100205.19;5056034;28;20035;-72
2022/12/31 04:10:14;;;;;;;0.10;0.10;;;;;;;16.02;77.51;100197.25;5052499;28;20464;-73
2022/12/31 04:12:39;;;;;;;1.30;0.20;;;;;;;16.05;76.91;100190.16;5067711;28;20029;-72
2022/12/31 04:15:07;;;;;;;0.10;0.10;;;;;;;16.10;76.77;100190.81;5018472;28;20036;-72
2022/12/31 04:17:33;;;;;;;0.22;0.20;;;;;;;16.16;76.53;100190.56;5045297;28;20123;-72
2022/12/31 04:19:58;;;;;;;0.28;0.10;;;;;;;16.13;76.37;100185.47;5059212;28;20119;-71
2022/12/31 04:22:24;;;;;;;0.20;0.10;;;;;;;16.12;76.34;100189.00;5053375;28;20513;-72
2022/12/31 04:24:49;;;;;;;1.08;0.10;;;;;;;16.04;76.94;100196.28;5036896;28;20047;-73
2022/12/31 04:27:15;;;;;;;0.25;0.20;;;;;;;16.02;76.68;100194.66;5069977;28;20044;-73
2022/12/31 04:29:40;;;;;;;0.20;0.20;;;;;;;15.99;76.81;100189.53;5021538;28;20397;-72
2022/12/31 04:32:06;;;;;;;0.22;0.15;;;;;;;15.96;77.15;100207.91;5021494;28;20043;-71
2022/12/31 04:34:32;;;;;;;0.65;0.13;;;;;;;15.92;77.44;100211.53;5060129;28;20028;-72
2022/12/31 04:36:58;;;;;;;0.45;0.20;;;;;;;15.90;77.50;100200.34;5054638;28;20082;-72
2022/12/31 04:39:24;;;;;;;0.10;0.10;;;;;;;15.89;77.65;100220.34;5068767;28;20037;-72
2022/12/31 04:41:50;;;;;;;0.10;0.10;;;;;;;15.87;77.63;100224.75;5068097;28;20501;-72
2022/12/31 04:44:15;;;;;;;0.55;0.20;;;;;;;15.87;77.63;100243.00;5037220;28;20036;-71
2022/12/31 04:46:41;;;;;;;0.20;0.10;;;;;;;15.93;77.36;100239.31;5020193;28;20036;-71
2022/12/31 04:49:07;;;;;;;0.38;0.20;;;;;;;16.02;77.24;100249.38;5050329;28;20040;-72
2022/12/31 04:51:33;;;;;;;1.42;0.20;;;;;;;16.07;76.93;100237.88;5050830;28;20051;-73
2022/12/31 04:53:59;;;;;;;0.20;0.10;;;;;;;16.12;76.48;100242.88;5049889;28;20473;-71
2022/12/31 04:56:25;;;;;;;0.45;0.20;;;;;;;16.20;76.10;100248.66;5039311;28;20057;-73
2022/12/31 04:58:50;;;;;;;0.70;0.13;;;;;;;16.23;75.78;100240.72;5068275;28;20106;-72
2022/12/31 05:01:16;;;;;;;3.85;0.22;;;;;;;16.19;75.75;100262.59;5036097;28;20493;-72
2022/12/31 05:03:41;;;;;;;1.02;0.20;;;;;;;16.20;75.75;100252.13;5049488;28;20044;-72
2022/12/31 05:06:14;;;;;;;1.02;0.20;;;;;;;16.29;74.82;100261.34;5069390;28;20787;-72
2022/12/31 05:08:40;;;;;;;0.43;0.20;;;;;;;16.40;74.60;100253.94;5054025;28;20028;-72
2022/12/31 05:11:06;;;;;;;0.63;0.30;;;;;;;16.45;74.23;100264.16;5051161;28;20383;-72
2022/12/31 05:13:32;;;;;;;0.68;0.10;;;;;;;16.56;73.76;100264.59;5067037;28;20044;-71
2022/12/31 05:15:57;;;;;;;0.22;0.13;;;;;;;16.61;73.39;100260.91;5048290;28;20033;-72
2022/12/31 05:18:23;;;;;;;0.57;0.30;;;;;;;16.62;73.23;100257.34;5049342;28;20508;-72
2022/12/31 05:20:48;;;;;;;1.05;0.40;;;;;;;16.60;73.26;100253.13;5049377;28;20641;-72
2022/12/31 05:23:15;;;;;;;0.95;0.40;;;;;;;16.60;73.21;100271.38;5044890;28;20031;-72
2022/12/31 05:25:42;;;;;;;0.65;0.22;;;;;;;16.64;73.12;100259.91;5032071;28;20104;-72
2022/12/31 05:28:08;;;;;;;0.68;0.30;;;;;;;16.73;72.52;100252.56;5068548;28;20123;-72
2022/12/31 05:30:33;;;;;;;2.78;0.30;;;;;;;16.85;72.01;100244.25;5072153;28;20602;-72
2022/12/31 05:32:59;;;;;;;0.90;0.30;;;;;;;16.92;71.77;100242.22;5041846;28;20024;-72
2022/12/31 05:35:25;;;;;;;1.88;0.32;;;;;;;17.00;71.18;100242.75;5068101;28;20378;-72
2022/12/31 05:37:51;;;;;;;0.70;0.30;;;;;;;16.97;71.70;100262.91;5060672;28;20031;-72
2022/12/31 05:40:19;;;;;;;0.73;0.40;;;;;;;16.94;71.60;100271.72;5050959;28;20115;-72
2022/12/31 05:42:44;;;;;;;1.48;0.60;;;;;;;16.91;71.85;100255.34;5078913;28;20408;-71
2022/12/31 05:45:12;;;;;;;1.10;0.47;;;;;;;16.90;71.79;100275.38;5015309;28;20037;-72
2022/12/31 05:47:39;;;;;;;1.15;0.40;;;;;;;16.88;71.97;100265.91;5051879;28;20028;-72
2022/12/31 05:50:06;;;;;;;1.02;0.40;;;;;;;16.89;71.89;100265.84;5070876;28;20753;-72
2022/12/31 05:52:31;;;;;;;0.80;0.43;;;;;;;16.99;71.41;100264.53;5049366;28;20323;-72
2022/12/31 05:54:57;;;;;;;2.75;0.50;;;;;;;16.98;71.46;100281.09;5051302;28;20040;-72
2022/12/31 05:57:22;;;;;;;1.45;0.40;;;;;;;17.01;71.59;100274.94;5053874;28;20532;-72
2022/12/31 05:59:48;;;;;;;3.70;0.50;;;;;;;16.97;71.66;100279.44;5056772;28;20051;-72
2022/12/31 06:02:14;;;;;;;1.63;0.60;;;;;;;16.85;72.11;100267.75;5041904;28;20024;-72
2022/12/31 06:04:39;;;;;;;1.15;0.40;;;;;;;16.80;72.13;100276.69;5073078;28;20039;-72
2022/12/31 06:07:05;;;;;;;1.85;0.50;;;;;;;16.83;72.29;100281.75;5048317;28;20506;-72
2022/12/31 06:09:30;;;;;;;2.33;0.60;;;;;;;16.80;72.37;100293.16;5075636;28;20024;-72
2022/12/31 06:11:55;;;;;;;2.78;0.40;;;;;;;16.77;72.49;100287.25;5057056;28;20028;-72
2022/12/31 06:14:21;;;;;;;0.70;0.30;;;;;;;16.70;72.75;100293.59;5059015;28;20039;-72
2022/12/31 06:16:46;;;;;;;2.10;0.52;;;;;;;16.66;72.97;100297.22;5044426;28;20069;-72
2022/12/31 06:19:12;;;;;;;1.70;0.80;;;;;;;16.63;73.23;100289.53;5040155;28;20028;-72
2022/12/31 06:21:37;;;;;;;2.13;0.60;;;;;;;16.60;73.38;100290.50;5057230;28;20059;-72
2022/12/31 06:24:03;;;;;;;1.67;0.40;;;;;;;16.52;73.66;100299.56;5059455;28;20063;-72
2022/12/31 06:26:29;;;;;;;3.00;0.50;;;;;;;16.55;73.40;100300.28;5043605;28;20366;-73
2022/12/31 06:28:54;;;;;;;2.83;0.75;;;;;;;16.55;73.75;100315.94;5064611;28;20031;-73
2022/12/31 06:31:20;;;;;;;1.08;0.40;;;;;;;16.55;73.77;100321.16;5067454;28;20521;-72
2022/12/31 06:33:45;;;;;;;1.27;0.65;;;;;;;16.56;73.69;100322.00;5057995;28;20044;-73
2022/12/31 06:36:13;;;;;;;2.38;0.60;;;;;;;16.64;73.66;100330.38;5043179;28;20032;-73
2022/12/31 06:38:40;;;;;;;2.17;0.57;;;;;;;16.69;73.39;100350.16;5041422;28;20453;-73
2022/12/31 06:41:09;;;;;;;2.28;0.52;;;;;;;16.72;73.12;100360.47;5061721;28;20029;-73
2022/12/31 06:43:35;;;;;;;2.60;0.50;;;;;;;16.83;72.55;100360.06;5059146;28;20409;-70
2022/12/31 06:46:02;;;;;;;1.30;0.50;;;;;;;16.98;72.25;100356.00;5057661;28;20504;-71
2022/12/31 06:48:28;;;;;;;2.00;0.60;;;;;;;17.06;71.81;100351.31;5057828;28;20151;-70
2022/12/31 06:50:53;;;;;;;1.10;0.50;;;;;;;17.02;71.57;100366.25;5054490;28;20035;-71
2022/12/31 06:53:19;;;;;;;1.58;0.50;;;;;;;16.99;71.91;100368.97;5056245;28;20024;-71
2022/12/31 06:55:44;;;;;;;1.52;0.60;;;;;;;17.01;72.06;100372.38;5059112;28;20564;-70
2022/12/31 06:58:15;;;;;;;1.33;0.60;;;;;;;17.00;72.04;100369.84;5051493;28;20092;-71
2022/12/31 07:00:51;;;;;;;2.05;0.50;;;;;;;16.88;72.60;100367.72;5062256;28;20044;-70
2022/12/31 07:04:08;;;;;;;1.95;0.40;;;;;;;16.81;72.80;100383.63;5038622;28;20315;-70
2022/12/31 07:06:43;;;;;;;1.65;0.47;;;;;;;16.85;72.56;100385.22;5029725;28;20530;-71
2022/12/31 07:09:34;;;;;;;2.90;0.80;;;;;;;16.93;72.38;100382.28;5053246;28;20037;-69
2022/12/31 07:12:28;;;;;;;1.00;0.45;;;;;;;16.99;72.02;100383.78;5053216;28;20024;-70
2022/12/31 07:15:05;;;;;;;1.27;0.47;;;;;;;16.97;71.88;100376.03;5055475;28;20102;-71
2022/12/31 07:18:13;;;;;;;2.47;0.55;;;;;;;16.93;72.30;100371.84;5054871;28;20098;-70
2022/12/31 07:20:39;;;;;;;1.45;0.65;;;;;;;16.90;72.04;100373.72;5057686;28;20068;-71
2022/12/31 07:23:07;;;;;;;2.83;0.50;;;;;;;16.92;72.25;100385.78;5058815;28;20044;-69
2022/12/31 07:25:34;;;;;;;1.08;0.45;;;;;;;16.94;71.83;100384.00;5056899;28;20031;-70
2022/12/31 07:28:37;;;;;;;1.30;0.40;;;;;;;16.89;72.01;100400.75;5058835;28;20106;-70
2022/12/31 07:31:34;;;;;;;1.50;0.60;;;;;;;16.89;72.19;100405.97;5074092;28;20549;-70
2022/12/31 07:34:11;;;;;;;3.33;0.50;;;;;;;16.93;71.97;100410.16;5072029;28;20580;-70
2022/12/31 07:36:45;;;;;;;2.47;0.93;;;;;;;16.91;72.10;100406.75;5059803;28;20052;-71
2022/12/31 07:39:24;;;;;;;1.83;0.75;;;;;;;16.88;71.96;100414.72;5076648;28;20036;-71
2022/12/31 07:41:56;;;;;;;1.35;0.73;;;;;;;16.84;72.05;100417.44;5047858;28;20032;-71
2022/12/31 07:44:33;;;;;;;1.58;0.55;;;;;;;16.84;71.89;100404.38;5051867;28;20020;-71
2022/12/31 07:47:00;;;;;;;0.68;0.50;;;;;;;16.82;72.20;100416.66;5072248;28;20114;-70
2022/12/31 07:49:28;;;;;;;1.20;0.65;;;;;;;16.82;72.16;100411.44;5060060;28;20375;-70
2022/12/31 07:51:54;;;;;;;1.48;0.63;;;;;;;16.86;71.83;100418.22;5048927;28;20399;-70
2022/12/31 07:54:20;;;;;;;1.42;0.68;;;;;;;16.88;71.89;100412.09;5066839;28;20504;-70
2022/12/31 07:56:47;;;;;;;1.35;0.57;;;;;;;16.84;72.08;100429.63;5043843;28;20139;-70
2022/12/31 07:59:34;;;;;;;2.42;0.73;;;;;;;16.85;72.09;100428.75;5048433;28;20556;-70
2022/12/31 08:02:17;;;;;;;2.60;0.65;;;;;;;16.83;71.86;100420.97;5058567;28;20040;-70
2022/12/31 08:04:52;;;;;;;1.20;0.70;;;;;;;16.87;71.54;100432.13;5057277;28;20052;-72
2022/12/31 08:07:36;;;;;;;2.25;0.68;;;;;;;17.00;70.81;100424.69;5074944;28;20056;-70
2022/12/31 08:10:07;;;;;;;1.67;0.60;;;;;;;17.08;70.42;100433.91;5061993;28;20090;-70
2022/12/31 08:12:34;;;;;;;2.28;0.90;;;;;;;17.06;70.64;100434.88;5058124;23;20372;-59
2022/12/31 08:15:00;;;;;;;1.63;0.70;;;;;;;17.06;70.76;100425.28;5060419;28;20035;-59
2022/12/31 08:17:26;;;;;;;4.13;0.77;;;;;;;17.08;70.65;100430.44;5075135;28;20047;-59
2022/12/31 08:19:52;;;;;;;1.38;0.52;;;;;;;17.10;70.42;100439.03;5066013;28;20040;-59
2022/12/31 08:22:55;;;;;;;2.42;0.50;;;;;;;17.13;70.03;100420.63;5058315;28;20915;-57
2022/12/31 08:25:31;;;;;;;1.92;0.57;;;;;;;17.13;70.12;100424.09;5034744;28;20516;-58
2022/12/31 08:28:19;;;;;;;4.93;0.80;;;;;;;17.17;69.65;100423.06;5022666;28;20044;-58
2022/12/31 08:30:57;;;;;;;3.25;0.82;;;;;;;17.20;69.69;100422.09;5057753;28;20036;-61
2022/12/31 08:33:34;;;;;;;2.03;0.93;;;;;;;17.25;69.70;100427.97;5056270;28;20094;-61
2022/12/31 08:36:05;;;;;;;1.98;1.13;;;;;;;17.21;69.82;100437.72;5053484;28;20028;-63
2022/12/31 08:38:42;;;;;;;1.85;0.90;;;;;;;17.24;69.54;100437.59;5050770;28;20046;-58
2022/12/31 08:41:29;;;;;;;3.60;0.60;;;;;;;17.32;69.13;100430.28;5058275;28;20037;-57
2022/12/31 08:44:06;;;;;;;3.13;1.10;;;;;;;17.33;69.05;100438.97;5051599;28;20033;-57
2022/12/31 08:46:54;;;;;;;3.03;0.73;;;;;;;17.35;69.14;100445.84;5057913;28;20126;-59
2022/12/31 08:49:19;;;;;;;3.17;0.80;;;;;;;17.33;69.49;100454.66;5056088;28;20032;-59
2022/12/31 08:51:45;;;;;;;1.65;0.60;;;;;;;17.30;69.52;100453.03;5055751;28;20068;-59
2022/12/31 08:54:12;;;;;;;2.40;0.70;;;;;;;17.32;69.29;100440.75;5033156;28;20216;-59
2022/12/31 08:57:08;;;;;;;1.27;0.77;;;;;;;17.33;69.50;100452.03;5054512;28;20104;-62
2022/12/31 08:59:39;;;;;;;2.65;0.90;;;;;;;17.38;69.27;100442.25;5052245;28;20063;-62
2022/12/31 09:02:32;;;;;;;2.22;0.65;;;;;;;17.45;69.16;100448.94;5057611;28;20147;-61
2022/12/31 09:05:10;;;;;;;2.35;0.55;;;;;;;17.48;68.93;100446.19;5052484;28;20524;-61
2022/12/31 09:07:47;;;;;;;3.63;0.90;;;;;;;17.50;68.93;100452.19;5053512;28;20079;-61
2022/12/31 09:10:22;;;;;;;3.05;0.80;;;;;;;17.60;68.62;100443.03;5059695;28;20059;-59
2022/12/31 09:12:55;;;;;;;2.95;0.77;;;;;;;17.57;68.97;100444.94;5056783;28;20063;-59
2022/12/31 09:15:32;;;;;;;2.72;1.00;;;;;;;17.61;68.44;100444.75;5056610;28;20041;-62
2022/12/31 09:17:58;;;;;;;1.80;0.65;;;;;;;17.65;68.18;100451.56;5057063;28;20021;-64
2022/12/31 09:20:30;;;;;;;2.22;0.57;;;;;;;17.69;68.38;100460.13;5040748;28;20055;-63
2022/12/31 09:22:57;;;;;;;3.97;1.15;;;;;;;17.71;68.02;100464.38;5055208;28;20081;-63
2022/12/31 09:25:24;;;;;;;4.43;1.00;;;;;;;17.75;68.17;100465.91;5060106;28;20036;-64
2022/12/31 09:28:14;;;;;;;3.05;1.15;;;;;;;17.75;68.39;100465.91;5051981;28;20067;-63
2022/12/31 09:30:57;;;;;;;1.73;0.80;;;;;;;17.77;68.07;100464.09;5049355;28;20421;-63
2022/12/31 09:33:45;;;;;;;5.55;0.90;;;;;;;17.81;68.08;100473.50;5058008;28;20404;-64
2022/12/31 09:36:18;;;;;;;1.48;0.60;;;;;;;17.85;68.20;100492.56;5053038;28;20804;-64
2022/12/31 09:38:59;;;;;;;3.17;0.90;;;;;;;17.97;67.07;100489.44;5053952;28;20020;-63
2022/12/31 09:41:49;;;;;;;1.35;0.70;;;;;;;18.04;66.83;100471.72;5026922;28;20056;-63
2022/12/31 09:44:32;;;;;;;5.47;1.10;;;;;;;18.05;67.23;100499.56;5037886;28;20052;-63
2022/12/31 09:47:38;;;;;;;4.07;0.88;;;;;;;18.09;67.16;100501.13;5038945;28;20040;-63
2022/12/31 09:50:21;;;;;;;2.22;1.00;;;;;;;18.09;67.04;100491.50;5058438;28;20063;-64
2022/12/31 09:52:50;;;;;;;4.15;0.90;;;;;;;18.11;66.51;100509.75;5067185;28;20059;-63
2022/12/31 09:55:34;;;;;;;4.15;1.10;;;;;;;18.11;66.57;100523.69;5063599;28;20040;-63
2022/12/31 09:58:06;;;;;;;4.82;0.85;;;;;;;18.09;66.68;100520.28;5040906;28;20073;-63
2022/12/31 10:01:13;;;;;;;1.98;0.80;;;;;;;18.13;66.21;100523.63;5031551;28;20037;-64
2022/12/31 10:03:49;;;;;;;2.30;0.82;;;;;;;18.16;66.19;100537.44;5001614;28;20033;-59
2022/12/31 10:06:43;;;;;;;2.38;0.90;;;;;;;18.24;65.93;100544.94;5032461;28;20087;-60
2022/12/31 10:09:20;;;;;;;3.63;0.77;;;;;;;18.28;66.13;100547.38;5026862;28;20038;-60
2022/12/31 10:12:03;;;;;;;2.55;0.77;;;;;;;18.32;65.68;100542.81;5036574;28;20025;-60
2022/12/31 10:14:57;;;;;;;1.85;0.60;;;;;;;18.34;65.54;100548.88;5037282;28;20032;-62
2022/12/31 10:17:54;;;;;;;6.53;1.10;;;;;;;18.36;65.68;100541.78;5033336;28;20045;-58
2022/12/31 10:20:26;;;;;;;2.28;0.90;;;;;;;18.35;65.53;100540.06;5034409;28;20057;-61
2022/12/31 10:23:23;;;;;;;3.03;1.13;;;;;;;18.31;65.74;100531.53;5032522;28;20033;-62
2022/12/31 10:26:16;;;;;;;2.03;0.80;;;;;;;18.30;65.80;100555.13;5013108;28;20055;-62
2022/12/31 10:28:58;;;;;;;2.28;0.73;;;;;;;18.36;65.40;100533.94;5032737;28;20465;-62
2022/12/31 10:31:38;;;;;;;4.72;1.30;;;;;;;18.38;65.36;100543.41;5040527;28;20056;-62
2022/12/31 10:34:22;;;;;;;3.33;0.75;;;;;;;18.45;65.00;100533.53;5035508;28;20098;-58
2022/12/31 10:36:53;;;;;;;3.15;1.20;;;;;;;18.45;65.26;100537.00;5034611;28;20179;-58
2022/12/31 10:39:59;;;;;;;2.40;0.88;;;;;;;18.46;65.22;100545.72;5034588;28;20041;-58
2022/12/31 10:42:43;;;;;;;;;;;;;;;18.43;65.83;100551.91;5035639;28;20037;-57
2022/12/31 10:45:14;;;;;;;2.45;0.77;;;;;;;18.45;65.54;100551.84;5032283;28;19998;-58
2022/12/31 10:47:55;;;;;;;3.90;0.93;;;;;;;18.42;65.56;100547.63;5034140;28;20795;-58
2022/12/31 10:50:44;;;;;;;4.28;0.85;;;;;;;18.41;65.57;100545.03;5035044;28;20094;-58
2022/12/31 10:53:18;;;;;;;3.33;1.08;;;;;;;18.45;64.97;100528.31;5034585;28;20048;-57
2022/12/31 10:56:01;;;;;;;6.10;1.00;;;;;;;18.44;64.75;100556.22;5035514;28;20040;-58
2022/12/31 10:58:37;;;;;;;4.60;1.20;;;;;;;18.43;64.94;100559.75;5044549;28;20514;-59
2022/12/31 11:01:46;;;;;;;2.05;0.85;;;;;;;18.39;64.86;100555.59;5054480;28;20033;-58
2022/12/31 11:04:41;;;;;;;1.45;0.80;;;;;;;18.41;64.74;100556.38;4990160;28;20076;-59
2022/12/31 11:07:21;;;;;;;3.78;1.20;;;;;;;18.41;64.85;100579.06;5035244;28;20795;-60
2022/12/31 11:10:01;;;;;;;1.90;0.98;;;;;;;18.44;64.12;100560.63;5047047;28;20042;-60
2022/12/31 11:12:59;;;;;;;4.22;1.05;;;;;;;18.45;64.55;100571.03;5055152;28;20118;-59
2022/12/31 11:15:57;;;;;;;4.63;1.30;;;;;;;18.48;63.97;100573.50;5055005;28;20032;-63
2022/12/31 11:18:34;;;;;;;3.10;1.05;;;;;;;18.52;64.14;100566.38;5017319;28;20098;-62
2022/12/31 11:21:28;;;;;;;3.70;1.10;;;;;;;18.57;63.76;100567.03;5050608;28;20024;-61
2022/12/31 11:24:36;;;;;;;4.78;1.13;;;;;;;18.59;63.87;100577.41;5056013;28;20553;-62
2022/12/31 11:27:34;;;;;;;2.47;1.10;;;;;;;18.62;63.94;100585.97;5056698;28;20288;-63
2022/12/31 11:30:22;;;;;;;5.47;1.23;;;;;;;18.59;64.17;100578.25;5052279;28;20027;-62
2022/12/31 11:32:56;;;;;;;4.75;1.55;;;;;;;18.57;64.34;100560.94;5054389;28;20020;-62
2022/12/31 11:35:40;;;;;;;4.20;0.80;;;;;;;18.55;64.15;100562.78;5033756;28;20024;-62
2022/12/31 11:38:16;;;;;;;3.42;1.15;;;;;;;18.53;63.72;100550.59;5029852;28;20103;-62
2022/12/31 11:40:53;;;;;;;6.07;1.27;;;;;;;18.56;63.83;100553.97;5036079;28;20041;-59
2022/12/31 11:43:30;;;;;;;2.67;1.02;;;;;;;18.48;64.38;100563.03;5035308;28;20037;-60
2022/12/31 11:46:01;;;;;;;2.42;1.00;;;;;;;18.44;64.28;100555.38;5033362;28;20052;-61
2022/12/31 11:48:49;;;;;;;3.42;1.02;;;;;;;18.31;64.90;100568.16;5033893;28;20386;-63
2022/12/31 11:51:39;;;;;;;2.92;0.90;;;;;;;18.21;64.69;100559.00;5037006;28;20102;-58
2022/12/31 11:54:26;;;;;;;3.35;1.10;;;;;;;18.17;64.84;100559.19;5035091;28;20139;-57
2022/12/31 11:57:26;;;;;;;2.50;1.00;;;;;;;18.09;65.16;100559.53;5037005;28;20041;-58
2022/12/31 11:59:57;;;;;;;3.13;1.17;;;;;;;18.09;64.90;100556.06;5027299;28;20622;-58
2022/12/31 12:02:27;;;;;;;1.73;1.00;;;;;;;18.11;65.04;100554.22;5035784;28;20393;-57